Time;durP1;ratioP1;P1;durP2;ratioP2;P2;SDS_P1;SDS_P2;PMS_P1;PMS_P2;Temp;Humidity;BMP_temperature;BMP_pressure;BME280_temperature;BME280_humidity;BME280_pressure;Samples;Min_cycle;Max_cycle;Signal;HPM_P1;HPM_P2
2023/03/19 00:01:19;;;;;;;0.20;0.20;;;10.20;99.90;;;;;;5044938;28;20179;-77
2023/03/19 00:03:44;;;;;;;0.20;0.20;;;10.10;99.90;;;;;;5043544;28;20190;-75
2023/03/19 00:06:10;;;;;;;0.20;0.20;;;10.20;99.90;;;;;;5033844;28;20274;-74
2023/03/19 00:08:36;;;;;;;0.20;0.20;;;10.10;99.90;;;;;;5043366;28;20187;-76
2023/03/19 00:11:09;;;;;;;0.20;0.20;;;10.20;99.90;;;;;;5044448;28;20464;-76
2023/03/19 00:13:35;;;;;;;0.20;0.20;;;10.20;99.90;;;;;;5078946;28;20183;-76
2023/03/19 00:16:01;;;;;;;0.20;0.20;;;10.20;99.90;;;;;;5039816;28;20432;-77
2023/03/19 00:18:26;;;;;;;0.20;0.20;;;10.20;99.90;;;;;;5039805;28;20706;-76
2023/03/19 00:20:52;;;;;;;0.20;0.20;;;10.20;99.90;;;;;;5048777;28;20906;-77
2023/03/19 00:23:17;;;;;;;0.30;0.30;;;10.10;99.90;;;;;;5034088;28;20190;-77
2023/03/19 00:25:43;;;;;;;0.20;0.20;;;10.10;99.90;;;;;;5031376;28;20183;-76
2023/03/19 00:28:08;;;;;;;0.20;0.20;;;10.10;99.90;;;;;;5046173;28;20186;-77
2023/03/19 00:30:34;;;;;;;0.20;0.20;;;9.90;99.90;;;;;;5044913;28;20186;-76
2023/03/19 00:33:00;;;;;;;0.20;0.20;;;10.10;99.90;;;;;;5049120;28;20181;-76
2023/03/19 00:35:25;;;;;;;0.20;0.20;;;10.00;99.90;;;;;;5049797;28;20270;-77
2023/03/19 00:37:51;;;;;;;0.20;0.20;;;10.10;99.90;;;;;;5047753;28;20265;-76
2023/03/19 00:40:17;;;;;;;0.20;0.20;;;10.00;99.90;;;;;;5029844;28;20637;-77
2023/03/19 00:42:43;;;;;;;0.20;0.20;;;9.90;99.90;;;;;;5039110;28;20665;-76
2023/03/19 00:45:10;;;;;;;0.20;0.20;;;10.00;99.90;;;;;;5037062;28;20175;-76
2023/03/19 00:47:36;;;;;;;0.20;0.20;;;9.90;99.90;;;;;;5048698;28;20444;-76
2023/03/19 00:50:03;;;;;;;0.20;0.20;;;10.00;99.90;;;;;;5040910;28;20461;-76
2023/03/19 00:52:28;;;;;;;0.20;0.20;;;9.90;99.90;;;;;;5040224;28;20171;-76
2023/03/19 00:54:54;;;;;;;0.20;0.20;;;10.00;99.90;;;;;;5043194;28;20969;-74
2023/03/19 00:57:20;;;;;;;0.20;0.20;;;10.00;99.90;;;;;;5079277;28;20189;-76
2023/03/19 00:59:45;;;;;;;0.20;0.20;;;10.00;99.90;;;;;;5047619;28;20218;-77
2023/03/19 01:02:11;;;;;;;0.20;0.20;;;9.90;99.90;;;;;;5045884;28;20186;-76
2023/03/19 01:04:36;;;;;;;0.20;0.20;;;9.90;99.90;;;;;;5042565;28;20192;-76
2023/03/19 01:07:02;;;;;;;0.20;0.20;;;9.80;99.90;;;;;;5034174;28;20180;-76
2023/03/19 01:09:27;;;;;;;0.20;0.20;;;9.70;99.90;;;;;;5046302;28;20237;-74
2023/03/19 01:11:53;;;;;;;0.20;0.20;;;9.80;99.90;;;;;;5030047;28;20183;-76
2023/03/19 01:14:19;;;;;;;0.20;0.20;;;9.80;99.90;;;;;;5036146;28;20682;-76
2023/03/19 01:16:44;;;;;;;0.20;0.20;;;9.80;99.90;;;;;;5039112;28;20182;-76
2023/03/19 01:19:11;;;;;;;0.20;0.20;;;9.70;99.90;;;;;;5046027;28;20243;-76
2023/03/19 01:21:36;;;;;;;0.20;0.20;;;9.70;99.90;;;;;;5047516;28;20194;-74
2023/03/19 01:24:02;;;;;;;0.20;0.20;;;;;;;;;;5045865;28;20860;-76
2023/03/19 01:26:28;;;;;;;0.20;0.20;;;;;;;;;;5063062;28;20313;-76
2023/03/19 01:28:54;;;;;;;0.20;0.20;;;9.60;99.90;;;;;;5040458;28;20940;-75
2023/03/19 01:31:20;;;;;;;0.20;0.20;;;9.70;99.90;;;;;;5037563;28;20473;-76
2023/03/19 01:33:46;;;;;;;0.20;0.20;;;9.70;99.90;;;;;;5045438;28;20463;-76
2023/03/19 01:36:12;;;;;;;0.20;0.20;;;9.70;99.90;;;;;;5036005;28;20442;-76
2023/03/19 01:38:38;;;;;;;0.20;0.20;;;9.70;99.90;;;;;;5029704;28;20226;-76
2023/03/19 01:41:03;;;;;;;0.20;0.20;;;9.70;99.90;;;;;;5045136;28;20956;-76
2023/03/19 01:43:30;;;;;;;0.20;0.20;;;9.60;99.90;;;;;;5049249;28;20297;-76
2023/03/19 01:46:15;;;;;;;0.20;0.20;;;9.60;99.90;;;;;;5044038;28;20206;-76
2023/03/19 01:48:47;;;;;;;0.20;0.20;;;9.60;99.90;;;;;;5043493;28;20441;-75
2023/03/19 01:51:16;;;;;;;0.20;0.20;;;9.50;99.90;;;;;;5036721;28;20468;-75
2023/03/19 01:53:47;;;;;;;0.20;0.20;;;9.40;99.90;;;;;;5031350;28;20965;-78
2023/03/19 01:56:27;;;;;;;0.20;0.20;;;9.40;99.90;;;;;;5029774;28;20453;-75
2023/03/19 01:58:57;;;;;;;0.20;0.20;;;9.40;99.90;;;;;;5047875;28;20468;-75
2023/03/19 02:01:23;;;;;;;0.30;0.30;;;9.30;99.90;;;;;;5044830;28;20437;-75
2023/03/19 02:03:50;;;;;;;0.20;0.20;;;9.30;99.90;;;;;;5048225;28;20832;-76
2023/03/19 02:06:18;;;;;;;0.20;0.20;;;9.30;99.90;;;;;;5041983;28;20544;-76
2023/03/19 02:08:44;;;;;;;0.20;0.20;;;9.30;99.90;;;;;;5034718;28;20453;-75
2023/03/19 02:11:10;;;;;;;0.20;0.20;;;9.30;99.90;;;;;;5042928;28;20471;-76
2023/03/19 02:13:35;;;;;;;0.20;0.20;;;9.30;99.90;;;;;;5048023;28;20421;-75
2023/03/19 02:16:01;;;;;;;0.20;0.20;;;9.30;99.90;;;;;;5042874;28;20183;-75
2023/03/19 02:18:27;;;;;;;0.20;0.20;;;9.20;99.90;;;;;;5047453;28;20813;-76
2023/03/19 02:21:09;;;;;;;0.20;0.20;;;9.10;99.90;;;;;;5045820;28;20209;-75
2023/03/19 02:24:11;;;;;;;0.20;0.20;;;9.20;99.90;;;;;;5035503;28;20622;-76
2023/03/19 02:26:38;;;;;;;0.20;0.20;;;9.10;99.90;;;;;;5032777;28;20459;-75
2023/03/19 02:29:04;;;;;;;0.20;0.20;;;9.20;99.90;;;;;;5049936;28;20452;-75
2023/03/19 02:31:30;;;;;;;0.20;0.20;;;9.20;99.90;;;;;;5041024;28;20473;-75
2023/03/19 02:34:05;;;;;;;0.20;0.20;;;9.10;99.90;;;;;;5036021;28;20507;-75
2023/03/19 02:36:41;;;;;;;0.20;0.20;;;9.20;99.90;;;;;;5043512;28;20198;-76
2023/03/19 02:39:13;;;;;;;0.20;0.20;;;9.00;99.90;;;;;;5049065;28;20479;-75
2023/03/19 02:41:40;;;;;;;0.20;0.20;;;9.10;99.90;;;;;;5052333;28;20455;-75
2023/03/19 02:44:10;;;;;;;0.20;0.20;;;9.10;99.90;;;;;;5040286;28;20838;-76
2023/03/19 02:46:36;;;;;;;0.23;0.23;;;9.10;99.90;;;;;;5043175;28;20443;-75
2023/03/19 02:49:01;;;;;;;0.20;0.20;;;9.00;99.90;;;;;;5049378;28;20532;-75
2023/03/19 02:51:27;;;;;;;0.20;0.20;;;9.00;99.90;;;;;;5050268;28;20240;-75
2023/03/19 02:53:52;;;;;;;0.30;0.30;;;9.00;99.90;;;;;;5046114;28;20178;-75
2023/03/19 02:56:18;;;;;;;0.20;0.20;;;9.00;99.90;;;;;;5050052;28;20183;-75
2023/03/19 02:58:43;;;;;;;0.30;0.30;;;9.00;99.90;;;;;;5050637;28;20582;-76
2023/03/19 03:01:09;;;;;;;0.20;0.20;;;8.90;99.90;;;;;;5044599;28;20194;-75
2023/03/19 03:03:34;;;;;;;0.20;0.20;;;8.90;99.90;;;;;;5046280;28;20179;-75
2023/03/19 03:06:00;;;;;;;0.20;0.20;;;8.90;99.90;;;;;;5032279;28;20179;-75
2023/03/19 03:08:27;;;;;;;0.20;0.20;;;8.80;99.90;;;;;;5047256;28;20187;-75
2023/03/19 03:10:52;;;;;;;0.30;0.30;;;8.80;99.90;;;;;;5046732;28;20183;-76
2023/03/19 03:13:18;;;;;;;0.20;0.20;;;8.80;99.90;;;;;;5041742;28;20452;-75
2023/03/19 03:15:43;;;;;;;0.30;0.30;;;8.80;99.90;;;;;;5038101;28;20278;-76
2023/03/19 03:18:09;;;;;;;0.20;0.20;;;8.80;99.90;;;;;;5049980;28;20235;-75
2023/03/19 03:20:35;;;;;;;0.20;0.20;;;8.80;99.90;;;;;;5037557;28;20267;-75
2023/03/19 03:23:00;;;;;;;0.20;0.20;;;8.80;99.90;;;;;;5039583;28;20586;-75
2023/03/19 03:25:26;;;;;;;0.20;0.20;;;8.70;99.90;;;;;;5043352;28;20532;-75
2023/03/19 03:27:52;;;;;;;0.30;0.30;;;8.70;99.90;;;;;;5037146;28;20179;-75
2023/03/19 03:30:17;;;;;;;0.20;0.20;;;8.60;99.90;;;;;;5059173;28;20802;-75
2023/03/19 03:32:43;;;;;;;0.20;0.20;;;8.60;99.90;;;;;;5043357;28;20193;-75
2023/03/19 03:35:09;;;;;;;0.20;0.20;;;8.50;99.90;;;;;;5042228;28;20542;-75
2023/03/19 03:37:36;;;;;;;0.20;0.20;;;8.50;99.90;;;;;;5046357;28;20187;-75
2023/03/19 03:40:07;;;;;;;0.30;0.30;;;8.30;99.90;;;;;;5048515;28;20214;-78
2023/03/19 03:42:33;;;;;;;0.20;0.20;;;8.20;99.90;;;;;;5046442;28;20444;-75
2023/03/19 03:44:59;;;;;;;0.30;0.30;;;8.30;99.90;;;;;;5048465;28;20457;-75
2023/03/19 03:47:25;;;;;;;0.20;0.20;;;8.20;99.90;;;;;;5039209;28;20438;-75
2023/03/19 03:49:50;;;;;;;0.30;0.30;;;8.30;99.90;;;;;;5049595;28;20616;-75
2023/03/19 03:52:16;;;;;;;0.23;0.23;;;8.40;99.90;;;;;;5043138;28;20243;-75
2023/03/19 03:54:42;;;;;;;0.30;0.30;;;8.40;99.90;;;;;;5048307;28;20182;-75
2023/03/19 03:57:07;;;;;;;0.30;0.30;;;8.40;99.90;;;;;;5051004;28;20175;-76
2023/03/19 03:59:33;;;;;;;0.20;0.20;;;8.30;99.90;;;;;;5047700;28;20218;-75
2023/03/19 04:01:58;;;;;;;0.20;0.20;;;8.30;99.90;;;;;;5049233;28;20190;-76
2023/03/19 04:04:24;;;;;;;0.30;0.30;;;8.20;99.90;;;;;;5047841;28;20554;-75
2023/03/19 04:06:49;;;;;;;0.20;0.20;;;8.10;99.90;;;;;;5038531;28;20940;-75
2023/03/19 04:09:16;;;;;;;0.30;0.30;;;8.20;99.90;;;;;;5035160;28;20194;-75
2023/03/19 04:11:41;;;;;;;0.20;0.20;;;8.30;99.90;;;;;;5048969;28;20187;-75
2023/03/19 04:14:07;;;;;;;0.20;0.20;;;8.20;99.90;;;;;;5045520;28;21061;-75
2023/03/19 04:16:33;;;;;;;0.20;0.20;;;8.20;99.90;;;;;;5046768;28;20193;-75
2023/03/19 04:18:59;;;;;;;0.20;0.20;;;8.30;99.90;;;;;;5048853;28;20484;-75
2023/03/19 04:21:25;;;;;;;0.30;0.30;;;8.20;99.90;;;;;;5049871;28;20209;-76
2023/03/19 04:23:50;;;;;;;0.30;0.30;;;8.20;99.90;;;;;;5047006;28;20187;-78
2023/03/19 04:26:16;;;;;;;0.30;0.30;;;8.20;99.90;;;;;;5042573;28;20648;-78
2023/03/19 04:28:42;;;;;;;0.20;0.20;;;8.10;99.90;;;;;;5043834;28;20530;-76
2023/03/19 04:31:08;;;;;;;0.20;0.20;;;8.00;99.90;;;;;;5042474;28;20196;-75
2023/03/19 04:33:34;;;;;;;0.20;0.20;;;7.80;99.90;;;;;;5048692;28;20545;-75
2023/03/19 04:36:00;;;;;;;0.20;0.20;;;7.60;99.90;;;;;;5047700;28;22378;-76
2023/03/19 04:38:26;;;;;;;0.20;0.20;;;7.60;99.90;;;;;;5033110;28;20450;-75
2023/03/19 04:40:52;;;;;;;0.30;0.30;;;7.90;99.90;;;;;;5039063;28;20183;-76
2023/03/19 04:43:18;;;;;;;0.30;0.30;;;7.80;99.90;;;;;;5029995;28;20580;-78
2023/03/19 04:45:44;;;;;;;0.30;0.30;;;7.70;99.90;;;;;;5042191;28;20454;-75
2023/03/19 04:48:09;;;;;;;0.20;0.20;;;7.50;99.90;;;;;;5034930;28;20175;-75
2023/03/19 04:50:35;;;;;;;0.30;0.30;;;7.50;99.90;;;;;;5045151;28;20441;-75
2023/03/19 04:53:01;;;;;;;0.20;0.20;;;7.50;99.90;;;;;;5048281;28;20212;-78
2023/03/19 04:55:26;;;;;;;0.30;0.30;;;7.40;99.90;;;;;;5041559;28;20189;-78
2023/03/19 04:57:52;;;;;;;0.20;0.20;;;7.30;99.90;;;;;;5030194;28;20245;-78
2023/03/19 05:00:18;;;;;;;0.30;0.30;;;7.30;99.90;;;;;;5034220;28;20576;-78
2023/03/19 05:02:43;;;;;;;0.30;0.30;;;7.20;99.90;;;;;;5037090;28;20285;-75
2023/03/19 05:05:12;;;;;;;0.30;0.30;;;7.20;99.90;;;;;;5044508;28;20210;-75
2023/03/19 05:07:38;;;;;;;0.20;0.20;;;7.30;99.90;;;;;;5047556;28;20175;-75
2023/03/19 05:10:05;;;;;;;0.20;0.20;;;;;;;;;;5044472;28;21034;-78
2023/03/19 05:12:31;;;;;;;0.30;0.30;;;;;;;;;;5045459;28;20532;-78
2023/03/19 05:14:57;;;;;;;0.30;0.30;;;7.70;99.90;;;;;;5048546;28;20456;-75
2023/03/19 05:17:23;;;;;;;0.20;0.20;;;7.70;99.90;;;;;;5043183;28;20445;-75
2023/03/19 05:19:48;;;;;;;0.30;0.30;;;7.70;99.90;;;;;;5048798;28;20277;-78
2023/03/19 05:22:14;;;;;;;0.30;0.30;;;7.50;99.90;;;;;;5047831;28;20536;-76
2023/03/19 05:24:39;;;;;;;0.20;0.20;;;7.50;99.90;;;;;;5048400;28;20881;-75
2023/03/19 05:27:05;;;;;;;0.20;0.20;;;7.40;99.90;;;;;;5038653;28;20229;-75
2023/03/19 05:29:31;;;;;;;0.30;0.30;;;7.50;99.90;;;;;;5049540;28;20248;-78
2023/03/19 05:31:56;;;;;;;0.20;0.20;;;7.60;99.90;;;;;;5045763;28;20187;-75
2023/03/19 05:34:22;;;;;;;0.30;0.30;;;7.80;99.90;;;;;;5047334;28;20626;-76
2023/03/19 05:36:47;;;;;;;0.30;0.30;;;7.70;99.90;;;;;;5045294;28;20194;-78
2023/03/19 05:39:13;;;;;;;0.30;0.30;;;7.70;99.90;;;;;;5044215;28;20718;-75
2023/03/19 05:41:38;;;;;;;0.30;0.30;;;7.70;99.90;;;;;;5037808;28;20728;-75
2023/03/19 05:44:04;;;;;;;0.20;0.20;;;7.80;99.90;;;;;;5039349;28;20670;-77
2023/03/19 05:46:30;;;;;;;0.30;0.30;;;7.80;99.90;;;;;;5044607;28;20218;-77
2023/03/19 05:48:55;;;;;;;0.30;0.30;;;7.70;99.90;;;;;;5048651;28;20567;-78
2023/03/19 05:51:21;;;;;;;0.27;0.27;;;7.80;99.90;;;;;;5047170;28;20240;-78
2023/03/19 05:53:46;;;;;;;0.23;0.23;;;8.00;99.90;;;;;;5044853;28;20774;-75
2023/03/19 05:56:12;;;;;;;0.27;0.27;;;8.00;99.90;;;;;;5047473;28;20196;-75
2023/03/19 05:58:38;;;;;;;0.30;0.30;;;8.20;99.90;;;;;;5043318;28;20206;-75
2023/03/19 06:01:03;;;;;;;0.27;0.27;;;8.30;99.90;;;;;;5040605;28;20722;-77
2023/03/19 06:03:29;;;;;;;0.20;0.20;;;8.30;99.90;;;;;;5045119;28;20213;-74
2023/03/19 06:05:55;;;;;;;0.20;0.20;;;8.40;99.90;;;;;;5068112;28;20187;-74
2023/03/19 06:08:20;;;;;;;0.30;0.30;;;8.40;99.90;;;;;;5048120;28;20220;-76
2023/03/19 06:10:46;;;;;;;0.20;0.20;;;8.40;99.90;;;;;;5048827;28;20233;-74
2023/03/19 06:13:12;;;;;;;0.20;0.20;;;8.40;99.90;;;;;;5042890;28;20186;-76
2023/03/19 06:15:37;;;;;;;0.20;0.20;;;8.40;99.90;;;;;;5046274;28;20206;-74
2023/03/19 06:18:03;;;;;;;0.20;0.20;;;8.50;99.90;;;;;;5040305;28;20642;-76
2023/03/19 06:20:29;;;;;;;0.30;0.30;;;8.50;99.90;;;;;;5040270;28;20264;-74
2023/03/19 06:22:54;;;;;;;0.20;0.20;;;8.50;99.90;;;;;;5039631;28;20176;-74
2023/03/19 06:25:20;;;;;;;0.20;0.20;;;8.60;99.90;;;;;;5033138;28;20244;-76
2023/03/19 06:27:46;;;;;;;0.20;0.20;;;8.60;99.90;;;;;;5036917;28;20266;-74
2023/03/19 06:30:12;;;;;;;0.20;0.20;;;8.60;99.90;;;;;;5045402;28;20444;-74
2023/03/19 06:32:38;;;;;;;0.30;0.30;;;8.50;99.90;;;;;;5037841;28;20179;-75
2023/03/19 06:35:05;;;;;;;0.20;0.20;;;8.50;99.90;;;;;;5040669;28;20448;-74
2023/03/19 06:37:31;;;;;;;0.30;0.30;;;8.60;99.90;;;;;;5036975;28;20189;-74
2023/03/19 06:39:56;;;;;;;0.20;0.20;;;8.60;99.90;;;;;;5047131;28;20480;-76
2023/03/19 06:42:23;;;;;;;0.20;0.20;;;8.70;99.90;;;;;;5036245;28;20429;-73
2023/03/19 06:44:50;;;;;;;0.20;0.20;;;8.70;99.90;;;;;;5043141;28;20252;-74
2023/03/19 06:47:15;;;;;;;0.20;0.20;;;8.70;99.90;;;;;;5039856;28;20474;-74
2023/03/19 06:49:41;;;;;;;0.20;0.20;;;8.70;99.90;;;;;;5042796;28;20863;-75
2023/03/19 06:52:07;;;;;;;0.20;0.20;;;8.70;99.90;;;;;;5037521;28;20270;-73
2023/03/19 06:54:32;;;;;;;0.20;0.20;;;8.70;99.90;;;;;;5036927;28;20210;-76
2023/03/19 06:56:58;;;;;;;0.20;0.20;;;8.70;99.90;;;;;;5041309;28;20285;-76
2023/03/19 06:59:24;;;;;;;0.20;0.20;;;8.80;99.90;;;;;;5039185;28;20283;-76
2023/03/19 07:01:50;;;;;;;0.20;0.20;;;8.90;99.90;;;;;;5038256;28;20237;-76
2023/03/19 07:04:15;;;;;;;0.20;0.20;;;9.20;99.90;;;;;;5059834;28;20445;-75
2023/03/19 07:06:41;;;;;;;0.20;0.20;;;9.40;99.90;;;;;;5048249;28;20187;-75
2023/03/19 07:09:07;;;;;;;0.20;0.20;;;9.60;99.90;;;;;;5041148;28;20588;-75
2023/03/19 07:11:32;;;;;;;0.20;0.20;;;9.70;99.90;;;;;;5037877;28;20301;-75
2023/03/19 07:13:58;;;;;;;0.20;0.20;;;9.90;99.90;;;;;;5037302;28;20190;-75
2023/03/19 07:16:24;;;;;;;0.10;0.10;;;10.00;99.90;;;;;;5036053;28;20252;-75
2023/03/19 07:18:49;;;;;;;0.20;0.20;;;10.20;99.90;;;;;;5038942;28;20243;-75
2023/03/19 07:21:15;;;;;;;0.20;0.20;;;10.30;99.90;;;;;;5039900;28;20559;-77
2023/03/19 07:23:41;;;;;;;0.20;0.20;;;10.30;99.90;;;;;;5033534;28;20647;-77
2023/03/19 07:26:06;;;;;;;0.20;0.20;;;10.40;99.90;;;;;;5041475;28;20985;-77
2023/03/19 07:28:32;;;;;;;0.20;0.20;;;10.10;99.90;;;;;;5045597;28;20179;-75
2023/03/19 07:30:57;;;;;;;0.20;0.20;;;10.20;99.90;;;;;;5047098;28;20194;-76
2023/03/19 07:33:23;;;;;;;0.20;0.20;;;10.30;99.90;;;;;;5043473;28;20186;-76
2023/03/19 07:35:49;;;;;;;0.20;0.20;;;10.40;99.90;;;;;;5045255;28;20179;-75
2023/03/19 07:38:15;;;;;;;0.20;0.20;;;10.70;99.90;;;;;;5046080;28;20182;-76
2023/03/19 07:40:41;;;;;;;0.20;0.20;;;11.10;99.90;;;;;;5045314;28;20983;-77
2023/03/19 07:43:06;;;;;;;0.20;0.20;;;11.30;99.90;;;;;;5042779;28;20468;-76
2023/03/19 07:45:32;;;;;;;0.20;0.20;;;11.10;99.90;;;;;;5032912;28;20183;-73
2023/03/19 07:48:00;;;;;;;0.20;0.20;;;10.90;99.90;;;;;;5041408;28;20659;-77
2023/03/19 07:50:25;;;;;;;0.20;0.20;;;11.10;99.90;;;;;;5046153;28;20198;-76
2023/03/19 07:52:51;;;;;;;0.20;0.20;;;11.00;99.90;;;;;;5032965;28;20856;-76
2023/03/19 07:55:18;;;;;;;0.20;0.20;;;11.10;99.90;;;;;;5031266;28;20185;-77
2023/03/19 07:57:44;;;;;;;0.20;0.20;;;11.50;99.90;;;;;;5033070;28;20198;-77
2023/03/19 08:00:10;;;;;;;0.20;0.20;;;;;;;;;;5046643;28;20468;-77
2023/03/19 08:02:36;;;;;;;0.20;0.20;;;;;;;;;;5048902;28;20197;-77
2023/03/19 08:05:03;;;;;;;0.10;0.10;;;;;;;;;;5048634;28;20508;-77
2023/03/19 08:07:30;;;;;;;0.20;0.20;;;11.00;99.90;;;;;;5041851;28;20534;-79
2023/03/19 08:09:56;;;;;;;0.10;0.10;;;11.30;99.90;;;;;;5047948;28;20459;-77
2023/03/19 08:12:21;;;;;;;0.10;0.10;;;10.70;99.90;;;;;;5046691;28;20441;-77
2023/03/19 08:14:47;;;;;;;0.20;0.20;;;11.20;99.90;;;;;;5033567;28;20472;-77
2023/03/19 08:17:12;;;;;;;0.20;0.20;;;11.00;99.90;;;;;;5031102;28;20183;-76
2023/03/19 08:19:38;;;;;;;0.20;0.20;;;11.10;99.90;;;;;;5032296;28;20239;-77
2023/03/19 08:22:04;;;;;;;0.20;0.20;;;11.00;99.90;;;;;;5043921;28;20286;-79
2023/03/19 08:24:30;;;;;;;0.20;0.20;;;11.10;99.90;;;;;;5044412;28;20212;-77
2023/03/19 08:26:55;;;;;;;0.20;0.20;;;11.20;99.90;;;;;;5045269;28;20186;-77
2023/03/19 08:29:21;;;;;;;0.20;0.20;;;11.30;99.90;;;;;;5047669;28;20539;-77
2023/03/19 08:31:49;;;;;;;0.20;0.20;;;11.30;99.90;;;;;;5045673;28;20247;-79
2023/03/19 08:34:14;;;;;;;0.20;0.20;;;11.20;99.90;;;;;;5040132;28;20183;-76
2023/03/19 08:36:40;;;;;;;0.20;0.20;;;11.20;99.90;;;;;;5045643;28;20445;-76
2023/03/19 08:39:05;;;;;;;0.10;0.10;;;11.30;99.90;;;;;;5041947;28;20210;-75
2023/03/19 08:41:31;;;;;;;0.10;0.10;;;11.50;99.90;;;;;;5040264;28;20183;-78
2023/03/19 08:43:56;;;;;;;0.20;0.20;;;11.70;99.90;;;;;;5038505;28;20183;-78
2023/03/19 08:46:22;;;;;;;0.20;0.20;;;11.70;99.90;;;;;;5034819;28;20546;-76
2023/03/19 08:48:47;;;;;;;0.20;0.20;;;11.60;99.90;;;;;;5038148;28;20187;-78
2023/03/19 08:51:17;;;;;;;0.10;0.10;;;;;;;;;;5039619;28;20194;-76
2023/03/19 08:53:44;;;;;;;0.20;0.20;;;;;;;;;;5043350;28;20193;-76
2023/03/19 08:56:13;;;;;;;0.10;0.10;;;;;;;;;;5038737;28;21013;-78
2023/03/19 08:58:41;;;;;;;0.10;0.10;;;;;;;;;;5046974;28;20473;-78
2023/03/19 09:01:11;;;;;;;0.20;0.20;;;;;;;;;;5039865;28;20449;-79
2023/03/19 09:03:38;;;;;;;0.10;0.10;;;11.70;99.90;;;;;;5045533;28;20940;-79
2023/03/19 09:06:05;;;;;;;0.10;0.10;;;11.70;99.90;;;;;;5080784;28;20451;-78
2023/03/19 09:08:31;;;;;;;0.10;0.10;;;11.60;99.90;;;;;;5047484;28;20448;-75
2023/03/19 09:10:57;;;;;;;0.10;0.10;;;11.50;99.90;;;;;;5030141;28;20418;-79
2023/03/19 09:13:23;;;;;;;0.10;0.10;;;11.50;99.90;;;;;;5042974;28;20480;-78
2023/03/19 09:15:49;;;;;;;0.10;0.10;;;11.50;99.90;;;;;;5039681;28;20477;-79
2023/03/19 09:18:15;;;;;;;0.10;0.10;;;11.50;99.90;;;;;;5039470;28;20244;-79
2023/03/19 09:20:41;;;;;;;0.20;0.20;;;11.70;99.90;;;;;;5048166;28;20484;-76
2023/03/19 09:23:07;;;;;;;0.20;0.20;;;11.70;99.90;;;;;;5028719;28;20418;-76
2023/03/19 09:25:32;;;;;;;0.10;0.10;;;11.70;99.90;;;;;;5043692;28;20528;-76
2023/03/19 09:27:58;;;;;;;0.20;0.20;;;11.50;99.90;;;;;;5049165;28;20186;-76
2023/03/19 09:30:23;;;;;;;0.10;0.10;;;11.60;99.90;;;;;;5043376;28;20561;-79
2023/03/19 09:32:49;;;;;;;0.10;0.10;;;11.60;99.90;;;;;;5037524;28;20186;-79
2023/03/19 09:35:15;;;;;;;0.20;0.20;;;11.60;99.90;;;;;;5045439;28;20286;-76
2023/03/19 09:37:40;;;;;;;0.20;0.20;;;11.70;99.90;;;;;;5036915;28;20183;-79
2023/03/19 09:40:07;;;;;;;0.20;0.20;;;11.70;99.90;;;;;;5053942;28;20214;-79
2023/03/19 09:43:12;;;;;;;0.10;0.10;;;11.70;99.90;;;;;;5053105;28;20210;-78
2023/03/19 09:45:38;;;;;;;0.20;0.20;;;11.80;99.90;;;;;;5050063;28;20539;-79
2023/03/19 09:48:14;;;;;;;0.20;0.20;;;12.00;99.90;;;;;;5052466;28;20533;-77
2023/03/19 09:50:40;;;;;;;0.10;0.10;;;12.00;99.90;;;;;;5053111;28;20182;-79
2023/03/19 09:53:22;;;;;;;0.10;0.10;;;12.10;99.90;;;;;;5050314;28;20808;-76
2023/03/19 09:55:51;;;;;;;0.10;0.10;;;12.20;99.90;;;;;;5040137;28;20270;-78
2023/03/19 09:58:18;;;;;;;0.10;0.10;;;12.30;99.90;;;;;;5040972;28;20501;-79
2023/03/19 10:00:48;;;;;;;0.10;0.10;;;12.30;99.90;;;;;;5044620;28;20493;-79
2023/03/19 10:03:23;;;;;;;0.17;0.17;;;12.40;99.90;;;;;;5047437;28;20445;-79
2023/03/19 10:06:11;;;;;;;0.10;0.10;;;12.60;99.90;;;;;;5037718;28;20445;-79
2023/03/19 10:09:16;;;;;;;0.10;0.10;;;13.00;99.90;;;;;;5062471;28;20437;-79
2023/03/19 10:12:00;;;;;;;0.10;0.10;;;13.10;99.90;;;;;;5037886;28;20456;-79
2023/03/19 10:15:11;;;;;;;0.10;0.10;;;13.10;99.90;;;;;;5048835;28;20468;-79
2023/03/19 10:17:50;;;;;;;0.10;0.10;;;13.20;99.90;;;;;;5041072;28;20449;-79
2023/03/19 10:20:18;;;;;;;0.10;0.10;;;13.10;99.90;;;;;;5049413;28;20480;-78
2023/03/19 10:22:48;;;;;;;0.10;0.10;;;13.70;99.90;;;;;;5049096;28;20442;-79
2023/03/19 10:25:21;;;;;;;0.10;0.10;;;14.10;99.90;;;;;;5047497;28;20544;-79
2023/03/19 10:27:53;;;;;;;0.10;0.10;;;14.20;99.90;;;;;;5040464;28;20438;-79
2023/03/19 10:30:20;;;;;;;0.10;0.10;;;14.30;99.90;;;;;;5039501;28;20442;-79
2023/03/19 10:32:53;;;;;;;0.10;0.10;;;15.40;99.90;;;;;;5037342;28;20979;-79
2023/03/19 10:35:38;;;;;;;0.10;0.10;;;15.50;99.90;;;;;;5033179;28;20813;-79
2023/03/19 10:38:24;;;;;;;0.10;0.10;;;15.50;99.90;;;;;;5050232;28;20539;-79
2023/03/19 10:41:05;;;;;;;0.10;0.10;;;16.60;99.90;;;;;;5046066;28;20476;-79
2023/03/19 10:43:33;;;;;;;0.10;0.10;;;16.20;99.90;;;;;;5043937;28;20451;-79
2023/03/19 10:45:58;;;;;;;0.10;0.10;;;16.40;99.90;;;;;;5044717;28;20441;-79
2023/03/19 10:48:25;;;;;;;0.10;0.10;;;16.40;99.90;;;;;;5041072;28;20846;-79
2023/03/19 10:50:57;;;;;;;0.10;0.10;;;;;;;;;;5047443;28;20221;-79
2023/03/19 10:53:37;;;;;;;0.10;0.10;;;17.90;99.90;;;;;;5038647;28;20445;-79
2023/03/19 10:56:02;;;;;;;0.10;0.10;;;17.00;99.90;;;;;;5051359;28;20523;-79
2023/03/19 10:58:31;;;;;;;0.10;0.10;;;16.20;99.90;;;;;;5048121;28;20543;-79
2023/03/19 11:01:15;;;;;;;0.10;0.10;;;15.50;99.90;;;;;;5046341;28;20221;-79
2023/03/19 11:04:15;;;;;;;0.10;0.10;;;14.90;99.90;;;;;;5048841;28;20527;-79
2023/03/19 11:06:41;;;;;;;0.10;0.10;;;14.60;99.90;;;;;;5059052;28;20459;-79
2023/03/19 11:09:06;;;;;;;0.10;0.10;;;14.70;99.90;;;;;;5046210;28;20437;-79
2023/03/19 11:11:50;;;;;;;0.10;0.10;;;14.60;99.90;;;;;;5042465;28;20187;-79
2023/03/19 11:14:43;;;;;;;0.10;0.10;;;14.70;99.90;;;;;;5038576;28;20187;-79
2023/03/19 11:17:21;;;;;;;0.10;0.10;;;14.70;99.90;;;;;;5042611;28;20472;-79
2023/03/19 11:19:55;;;;;;;0.10;0.10;;;14.70;99.90;;;;;;5037172;28;20488;-78
2023/03/19 11:22:31;;;;;;;0.10;0.10;;;14.70;99.90;;;;;;5043914;28;20498;-78
2023/03/19 11:25:12;;;;;;;0.10;0.10;;;14.80;99.90;;;;;;5040907;28;20441;-79
2023/03/19 11:27:39;;;;;;;0.10;0.10;;;14.60;99.90;;;;;;5057257;28;20595;-79
2023/03/19 11:30:17;;;;;;;0.10;0.10;;;14.40;99.90;;;;;;5044484;28;20448;-79
2023/03/19 11:33:26;;;;;;;0.10;0.10;;;14.30;99.90;;;;;;5046132;28;20444;-79
2023/03/19 11:35:55;;;;;;;0.10;0.10;;;14.20;99.90;;;;;;5032721;28;20501;-79
2023/03/19 11:38:49;;;;;;;0.10;0.10;;;14.20;99.90;;;;;;5046787;28;22064;-78
2023/03/19 11:41:29;;;;;;;0.10;0.10;;;14.00;99.90;;;;;;5042585;28;20457;-79
2023/03/19 11:44:16;;;;;;;0.10;0.10;;;14.00;99.90;;;;;;5049064;28;20502;-79
2023/03/19 11:47:07;;;;;;;0.10;0.10;;;14.20;99.90;;;;;;5053313;28;20955;-78
2023/03/19 11:49:51;;;;;;;0.10;0.10;;;14.30;99.90;;;;;;5038532;28;20932;-76
2023/03/19 11:52:21;;;;;;;0.10;0.10;;;14.30;99.90;;;;;;5043384;28;20519;-79
2023/03/19 11:55:09;;;;;;;0.10;0.10;;;14.30;99.90;;;;;;5043698;28;20442;-79
2023/03/19 11:57:56;;;;;;;0.10;0.10;;;14.30;99.90;;;;;;5062518;28;20434;-79
2023/03/19 12:00:46;;;;;;;0.10;0.10;;;14.40;99.90;;;;;;5040572;28;21170;-79
2023/03/19 12:03:31;;;;;;;0.10;0.10;;;14.40;99.90;;;;;;5033044;28;20434;-78
2023/03/19 12:06:17;;;;;;;0.10;0.10;;;14.20;99.90;;;;;;5049784;28;20422;-79
2023/03/19 12:09:05;;;;;;;0.10;0.10;;;14.20;99.90;;;;;;5039775;28;20460;-79
2023/03/19 12:11:53;;;;;;;0.10;0.10;;;14.20;99.90;;;;;;5031384;28;20500;-78
2023/03/19 12:14:29;;;;;;;0.10;0.10;;;14.10;99.90;;;;;;5035169;28;20451;-78
2023/03/19 12:17:27;;;;;;;0.10;0.10;;;14.00;99.90;;;;;;5039785;28;20446;-76
2023/03/19 12:20:29;;;;;;;0.10;0.10;;;13.70;99.90;;;;;;5034139;28;20508;-79
2023/03/19 12:23:31;;;;;;;0.10;0.10;;;13.80;99.90;;;;;;5030812;28;21020;-79
2023/03/19 12:26:03;;;;;;;0.10;0.10;;;13.70;99.90;;;;;;5043099;28;20428;-77
2023/03/19 12:28:33;;;;;;;0.10;0.10;;;13.80;99.90;;;;;;5047998;28;20479;-79
2023/03/19 12:31:24;;;;;;;0.10;0.10;;;13.80;99.90;;;;;;5039141;28;20444;-79
2023/03/19 12:34:11;;;;;;;0.10;0.10;;;14.00;99.90;;;;;;5042250;28;20458;-78
2023/03/19 12:36:47;;;;;;;0.13;0.13;;;14.00;99.90;;;;;;5045980;28;20459;-79
2023/03/19 12:39:24;;;;;;;0.10;0.10;;;14.10;99.90;;;;;;5037586;28;20925;-76
2023/03/19 12:41:52;;;;;;;0.10;0.10;;;14.40;99.90;;;;;;5046555;28;20695;-78
2023/03/19 12:44:25;;;;;;;0.00;0.00;;;14.60;99.90;;;;;;5041273;28;20486;-76
2023/03/19 12:47:11;;;;;;;0.00;0.00;;;14.40;99.90;;;;;;5046129;28;20448;-79
2023/03/19 12:49:51;;;;;;;0.00;0.00;;;14.20;99.90;;;;;;5039678;28;20843;-79
2023/03/19 12:52:35;;;;;;;0.00;0.00;;;14.20;99.90;;;;;;5054948;28;20529;-80
2023/03/19 12:55:20;;;;;;;0.00;0.00;;;14.30;99.90;;;;;;5038141;28;20500;-79
2023/03/19 12:57:58;;;;;;;0.00;0.00;;;14.10;99.90;;;;;;5045879;28;20449;-79
2023/03/19 13:00:41;;;;;;;0.00;0.00;;;13.90;99.90;;;;;;5036585;28;20830;-76
2023/03/19 13:03:21;;;;;;;0.00;0.00;;;13.90;99.90;;;;;;5031850;28;20441;-76
2023/03/19 13:05:58;;;;;;;0.00;0.00;;;13.80;99.90;;;;;;5041255;28;20501;-79
2023/03/19 13:08:54;;;;;;;0.00;0.00;;;13.80;99.90;;;;;;5036441;28;20612;-78